createdAt,value
2023-04-03T00:01:17.756Z,3.22
2023-04-03T00:03:44.578Z,2.95
2023-04-03T00:06:11.757Z,3.15
2023-04-03T00:08:49.356Z,2.67
2023-04-03T00:11:16.021Z,2.38
2023-04-03T00:13:42.773Z,2.28
2023-04-03T00:16:19.026Z,2.60
2023-04-03T00:18:46.072Z,2.15
2023-04-03T00:21:14.176Z,2.45
2023-04-03T00:23:40.783Z,2.03
2023-04-03T00:26:07.512Z,2.38
2023-04-03T00:28:39.792Z,2.90
2023-04-03T00:31:06.434Z,3.25
2023-04-03T00:33:33.022Z,3.00
2023-04-03T00:35:59.772Z,2.63
2023-04-03T00:38:26.861Z,2.85
2023-04-03T00:40:53.487Z,3.10
2023-04-03T00:43:21.846Z,2.72
2023-04-03T00:45:49.441Z,2.30
2023-04-03T00:48:36.350Z,2.90
2023-04-03T00:51:05.761Z,2.95
2023-04-03T00:53:34.921Z,3.20
2023-04-03T00:56:08.382Z,2.60
2023-04-03T00:58:38.364Z,3.78
2023-04-03T01:01:11.626Z,2.97
2023-04-03T01:03:38.312Z,2.65
2023-04-03T01:06:06.154Z,2.40
2023-04-03T01:08:33.354Z,3.20
2023-04-03T01:11:00.030Z,3.13
2023-04-03T01:13:31.006Z,3.83
2023-04-03T01:15:58.086Z,3.28
2023-04-03T01:20:56.933Z,3.30
2023-04-03T01:23:50.844Z,2.95
2023-04-03T01:26:18.281Z,3.03
2023-04-03T01:31:34.829Z,3.42
2023-04-03T01:34:13.653Z,3.13
2023-04-03T01:36:48.071Z,3.33
2023-04-03T01:39:15.765Z,3.30
2023-04-03T01:41:42.469Z,3.20
2023-04-03T01:44:09.295Z,3.10
2023-04-03T01:49:14.632Z,2.70
2023-04-03T01:51:41.305Z,3.05
2023-04-03T01:54:09.783Z,3.00
2023-04-03T01:56:44.547Z,2.95
2023-04-03T01:59:18.155Z,2.75
2023-04-03T02:01:47.789Z,2.70
2023-04-03T02:04:14.555Z,2.78
2023-04-03T02:06:41.349Z,2.78
2023-04-03T02:09:08.063Z,2.60
2023-04-03T02:11:34.823Z,3.03
2023-04-03T02:14:02.304Z,3.80
2023-04-03T02:16:29.181Z,3.28
2023-04-03T02:18:56.142Z,2.88
2023-04-03T02:21:31.059Z,3.10
2023-04-03T02:23:57.725Z,2.70
2023-04-03T02:26:39.994Z,3.15
2023-04-03T02:29:10.171Z,2.95
2023-04-03T02:31:37.045Z,2.55
2023-04-03T02:34:07.178Z,2.58
2023-04-03T02:36:33.876Z,1.88
2023-04-03T02:39:00.689Z,2.13
2023-04-03T02:41:27.555Z,1.80
2023-04-03T02:43:54.228Z,2.30
2023-04-03T02:46:37.626Z,2.80
2023-04-03T02:49:05.475Z,2.78
2023-04-03T02:51:32.227Z,2.45
2023-04-03T02:54:02.043Z,2.10
2023-04-03T02:56:28.839Z,2.40
2023-04-03T02:59:14.443Z,2.70
2023-04-03T03:01:41.268Z,2.35
2023-04-03T03:04:08.051Z,1.85
2023-04-03T03:06:34.746Z,2.25
2023-04-03T03:11:43.569Z,2.30
2023-04-03T03:14:15.005Z,2.67
2023-04-03T03:16:41.740Z,2.45
2023-04-03T03:19:08.456Z,2.17
2023-04-03T03:21:35.257Z,2.63
2023-04-03T03:24:02.180Z,2.90
2023-04-03T03:26:28.941Z,2.45
2023-04-03T03:28:55.686Z,2.15
2023-04-03T03:31:22.490Z,2.40
2023-04-03T03:33:49.205Z,2.08
2023-04-03T03:36:23.501Z,2.20
2023-04-03T03:38:50.176Z,2.83
2023-04-03T03:41:16.923Z,3.20
2023-04-03T03:43:44.301Z,2.78
2023-04-03T03:46:11.061Z,2.65
2023-04-03T03:48:37.853Z,3.30
2023-04-03T03:51:14.843Z,3.63
2023-04-03T03:53:45.284Z,3.33
2023-04-03T03:56:11.952Z,3.05
2023-04-03T03:58:44.460Z,2.47
2023-04-03T04:01:11.500Z,2.40
2023-04-03T04:03:38.392Z,2.40
2023-04-03T04:06:05.219Z,2.38
2023-04-03T04:08:34.981Z,3.15
2023-04-03T04:11:06.268Z,3.22
2023-04-03T04:13:34.353Z,2.35
2023-04-03T04:16:01.136Z,3.33
2023-04-03T04:18:27.830Z,3.17
2023-04-03T04:20:54.520Z,2.90
2023-04-03T04:23:21.265Z,2.50
2023-04-03T04:25:48.610Z,2.63
2023-04-03T04:28:21.180Z,2.80
2023-04-03T04:30:54.142Z,2.92
2023-04-03T04:33:20.855Z,2.97
2023-04-03T04:35:48.553Z,2.55
2023-04-03T04:38:15.364Z,2.40
2023-04-03T04:40:45.947Z,3.00
2023-04-03T04:43:12.653Z,2.80
2023-04-03T04:45:39.995Z,2.38
2023-04-03T04:48:10.051Z,2.65
2023-04-03T04:50:40.773Z,2.53
2023-04-03T04:53:07.505Z,2.78
2023-04-03T04:55:34.247Z,2.95
2023-04-03T04:58:01.091Z,3.20
2023-04-03T05:00:27.793Z,2.38
2023-04-03T05:02:54.732Z,2.88
2023-04-03T05:05:21.445Z,2.47
2023-04-03T05:07:48.185Z,2.65
2023-04-03T05:10:21.164Z,2.55
2023-04-03T05:12:57.226Z,3.10
2023-04-03T05:15:29.001Z,2.58
2023-04-03T05:17:56.054Z,2.30
2023-04-03T05:20:22.837Z,2.85
2023-04-03T05:22:49.829Z,2.72
2023-04-03T05:25:35.232Z,3.33
2023-04-03T05:28:10.728Z,3.55
2023-04-03T05:30:51.329Z,3.80
2023-04-03T05:33:18.635Z,3.95
2023-04-03T05:35:53.793Z,4.03
2023-04-03T05:38:37.035Z,4.50
2023-04-03T05:41:14.048Z,3.67
2023-04-03T05:43:41.686Z,4.55
2023-04-03T05:46:12.891Z,5.00
2023-04-03T05:48:40.063Z,5.05
2023-04-03T05:51:07.341Z,4.55
2023-04-03T05:53:44.864Z,4.40
2023-04-03T05:56:12.750Z,4.82
2023-04-03T05:58:39.606Z,4.93
2023-04-03T06:01:06.536Z,5.45
2023-04-03T06:03:33.546Z,5.22
2023-04-03T06:06:00.624Z,5.18
2023-04-03T06:08:33.019Z,5.03
2023-04-03T06:10:59.732Z,5.35
2023-04-03T06:13:26.546Z,4.82
2023-04-03T06:15:53.271Z,5.75
2023-04-03T06:18:25.177Z,5.53
2023-04-03T06:20:51.915Z,5.43
2023-04-03T06:23:18.717Z,4.88
2023-04-03T06:25:45.356Z,5.40
2023-04-03T06:28:16.848Z,4.50
2023-04-03T06:30:50.394Z,4.60
2023-04-03T06:33:17.159Z,3.93
2023-04-03T06:35:43.908Z,4.30
2023-04-03T06:38:10.631Z,4.70
2023-04-03T06:40:37.541Z,5.15
2023-04-03T06:43:04.475Z,5.68
2023-04-03T06:45:31.176Z,5.20
2023-04-03T06:47:58.012Z,4.80
2023-04-03T06:50:24.759Z,4.72
2023-04-03T06:52:51.464Z,5.75
2023-04-03T06:55:18.234Z,6.03
2023-04-03T06:57:51.921Z,5.07
2023-04-03T07:00:23.907Z,5.22
2023-04-03T07:02:57.404Z,5.25
2023-04-03T07:05:24.332Z,5.77
2023-04-03T07:07:51.036Z,5.72
2023-04-03T07:10:17.790Z,6.35
2023-04-03T07:12:44.511Z,6.72
2023-04-03T07:15:11.778Z,7.07
2023-04-03T07:17:38.963Z,7.38
2023-04-03T07:20:06.016Z,6.40
2023-04-03T07:22:40.497Z,6.15
2023-04-03T07:25:07.589Z,5.53
2023-04-03T07:27:34.410Z,7.20
2023-04-03T07:30:02.824Z,6.95
2023-04-03T07:32:34.537Z,6.75
2023-04-03T07:35:06.760Z,6.88
2023-04-03T07:37:36.834Z,6.93
2023-04-03T07:40:03.757Z,7.10
2023-04-03T07:42:30.722Z,8.60
2023-04-03T07:44:57.476Z,8.30
2023-04-03T07:47:24.178Z,8.00
2023-04-03T07:49:50.941Z,8.60
2023-04-03T07:52:17.684Z,8.40
2023-04-03T07:54:44.446Z,7.55
2023-04-03T07:57:11.550Z,7.22
2023-04-03T07:59:53.572Z,7.30
2023-04-03T08:02:20.827Z,8.75
2023-04-03T08:04:47.616Z,8.13
2023-04-03T08:07:14.760Z,8.20
2023-04-03T08:09:46.549Z,7.80
2023-04-03T08:12:15.344Z,7.10
2023-04-03T08:14:42.115Z,7.25
2023-04-03T08:17:09.649Z,7.55
2023-04-03T08:19:36.537Z,7.70
2023-04-03T08:22:03.196Z,9.63
2023-04-03T08:24:31.406Z,9.35
2023-04-03T08:26:58.305Z,6.97
2023-04-03T08:29:27.774Z,8.10
2023-04-03T08:31:54.635Z,6.70
2023-04-03T08:34:21.550Z,6.90
2023-04-03T08:36:48.609Z,7.07
2023-04-03T08:39:15.343Z,7.05
2023-04-03T08:41:43.218Z,6.32
2023-04-03T08:44:28.468Z,6.57
2023-04-03T08:47:13.319Z,5.68
2023-04-03T08:49:48.810Z,5.78
2023-04-03T08:52:19.883Z,5.80
2023-04-03T08:54:50.969Z,6.15
2023-04-03T08:57:18.806Z,6.30
2023-04-03T08:59:45.631Z,7.22
2023-04-03T09:02:24.821Z,6.85
2023-04-03T09:04:51.623Z,5.85
2023-04-03T09:07:23.586Z,5.28
2023-04-03T09:09:50.577Z,5.85
2023-04-03T09:12:17.280Z,4.95
2023-04-03T09:14:47.058Z,4.78
2023-04-03T09:17:34.619Z,4.55
2023-04-03T09:20:10.371Z,5.10
2023-04-03T09:22:45.694Z,4.68
2023-04-03T09:25:21.424Z,4.60
2023-04-03T09:27:48.281Z,4.38
2023-04-03T09:30:16.312Z,4.13
2023-04-03T09:32:45.371Z,4.68
2023-04-03T09:35:23.429Z,5.28
2023-04-03T09:38:12.914Z,5.43
2023-04-03T09:40:40.978Z,5.43
2023-04-03T09:43:29.279Z,4.93
2023-04-03T09:45:56.776Z,5.38
2023-04-03T09:48:26.991Z,6.00
2023-04-03T09:50:58.818Z,5.82
2023-04-03T09:53:37.368Z,6.80
2023-04-03T09:56:17.278Z,6.30
2023-04-03T10:01:39.120Z,5.53
2023-04-03T10:04:10.073Z,5.20
2023-04-03T10:06:41.144Z,5.03
2023-04-03T10:09:16.907Z,4.78
2023-04-03T10:12:03.307Z,4.85
2023-04-03T10:14:30.822Z,3.55
2023-04-03T10:17:03.737Z,3.50
2023-04-03T10:19:36.271Z,3.08
2023-04-03T10:22:24.320Z,2.70
2023-04-03T10:24:54.104Z,2.50
2023-04-03T10:27:43.389Z,2.22
2023-04-03T10:30:21.200Z,2.00
2023-04-03T10:33:08.244Z,2.10
2023-04-03T10:35:41.178Z,2.00
2023-04-03T10:38:24.936Z,2.10
2023-04-03T10:41:06.425Z,2.15
2023-04-03T10:43:56.974Z,2.05
2023-04-03T10:46:27.432Z,2.55
2023-04-03T10:48:54.157Z,2.00
2023-04-03T10:51:32.199Z,2.08
2023-04-03T10:54:06.895Z,2.40
2023-04-03T10:56:38.473Z,2.42
2023-04-03T10:59:20.702Z,2.30
2023-04-03T11:01:53.643Z,2.00
2023-04-03T11:04:21.579Z,2.15
2023-04-03T11:07:09.268Z,1.63
2023-04-03T11:09:36.945Z,1.55
2023-04-03T11:12:06.255Z,1.58
2023-04-03T11:14:37.942Z,1.50
2023-04-03T11:17:20.093Z,1.17
2023-04-03T11:19:52.930Z,1.58
2023-04-03T11:22:37.209Z,1.42
2023-04-03T11:25:24.193Z,1.35
2023-04-03T11:27:55.478Z,1.70
2023-04-03T11:30:24.746Z,1.63
2023-04-03T11:33:10.486Z,1.50
2023-04-03T11:35:38.060Z,1.75
2023-04-03T11:38:06.432Z,1.30
2023-04-03T11:40:34.348Z,1.83
2023-04-03T11:43:01.019Z,1.40
2023-04-03T11:45:37.167Z,1.50
2023-04-03T11:48:23.222Z,1.42
2023-04-03T11:50:51.099Z,1.40
2023-04-03T11:53:21.316Z,1.13
2023-04-03T11:55:50.850Z,1.00
2023-04-03T11:58:17.790Z,1.08
2023-04-03T12:00:48.808Z,1.17
2023-04-03T12:03:36.393Z,1.38
2023-04-03T12:06:06.271Z,1.27
2023-04-03T12:08:44.148Z,1.20
2023-04-03T12:11:13.543Z,1.20
2023-04-03T12:14:03.320Z,0.80
2023-04-03T12:16:39.212Z,1.00
2023-04-03T12:19:05.944Z,1.00
2023-04-03T12:21:32.565Z,1.20
2023-04-03T12:24:08.344Z,0.98
2023-04-03T12:26:53.605Z,1.00
2023-04-03T12:29:25.572Z,1.08
2023-04-03T12:32:24.389Z,1.05
2023-04-03T12:34:53.852Z,0.70
2023-04-03T12:37:23.609Z,1.20
2023-04-03T12:40:06.168Z,0.88
2023-04-03T12:42:51.507Z,0.90
2023-04-03T12:45:21.926Z,1.13
2023-04-03T12:47:50.385Z,1.00
2023-04-03T12:50:22.619Z,1.10
2023-04-03T12:53:01.152Z,1.10
2023-04-03T12:55:27.916Z,0.90
2023-04-03T12:57:54.687Z,1.20
2023-04-03T13:00:30.650Z,1.42
2023-04-03T13:02:57.724Z,1.08
2023-04-03T13:05:24.635Z,0.88
2023-04-03T13:08:02.919Z,0.85
2023-04-03T13:10:30.526Z,1.00
2023-04-03T13:12:59.386Z,1.27
2023-04-03T13:15:26.055Z,1.20
2023-04-03T13:17:53.817Z,1.20
2023-04-03T13:20:30.983Z,0.73
2023-04-03T13:23:05.054Z,1.10
2023-04-03T13:25:41.022Z,0.88
2023-04-03T13:28:14.033Z,0.98
2023-04-03T13:30:55.962Z,1.10
2023-04-03T13:33:25.080Z,0.85
2023-04-03T13:35:59.638Z,0.98
2023-04-03T13:38:28.038Z,1.00
2023-04-03T13:40:56.904Z,1.08
2023-04-03T13:43:29.854Z,1.02
2023-04-03T13:45:58.696Z,0.95
2023-04-03T13:48:26.080Z,0.85
2023-04-03T13:51:06.706Z,1.52
2023-04-03T13:53:42.947Z,1.20
2023-04-03T13:56:17.475Z,1.00
2023-04-03T13:58:54.084Z,1.00
2023-04-03T14:01:24.498Z,1.10
2023-04-03T14:04:00.779Z,0.90
2023-04-03T14:06:28.113Z,0.90
2023-04-03T14:08:54.890Z,1.00
2023-04-03T14:11:30.204Z,0.98
2023-04-03T14:14:07.609Z,0.90
2023-04-03T14:16:38.390Z,0.82
2023-04-03T14:19:05.271Z,1.05
2023-04-03T14:21:31.990Z,0.95
2023-04-03T14:23:58.929Z,1.23
2023-04-03T14:26:26.118Z,0.90
2023-04-03T14:28:53.973Z,1.00
2023-04-03T14:31:21.276Z,0.85
2023-04-03T14:33:48.653Z,0.95
2023-04-03T14:36:17.614Z,1.08
2023-04-03T14:38:45.934Z,0.75
2023-04-03T14:41:16.837Z,1.00
2023-04-03T14:43:50.268Z,1.10
2023-04-03T14:46:48.408Z,1.10
2023-04-03T14:49:22.043Z,0.85
2023-04-03T14:51:49.044Z,1.13
2023-04-03T14:54:17.181Z,1.25
2023-04-03T14:56:44.148Z,1.00
2023-04-03T14:59:12.313Z,1.00
2023-04-03T15:01:39.098Z,1.10
2023-04-03T15:07:04.675Z,1.25
2023-04-03T15:09:31.682Z,1.30
2023-04-03T15:12:00.396Z,1.10
2023-04-03T15:14:36.205Z,1.25
2023-04-03T15:17:08.042Z,1.15
2023-04-03T15:19:39.069Z,1.10
2023-04-03T15:22:13.496Z,1.27
2023-04-03T15:24:40.533Z,0.93
2023-04-03T15:27:14.742Z,1.23
2023-04-03T15:29:42.409Z,1.05
2023-04-03T15:32:12.254Z,1.20
2023-04-03T15:34:39.181Z,1.30
2023-04-03T15:37:06.050Z,0.95
2023-04-03T15:39:34.217Z,1.30
2023-04-03T15:42:14.757Z,1.05
2023-04-03T15:44:47.851Z,1.15
2023-04-03T15:47:14.741Z,1.02
2023-04-03T15:49:49.953Z,0.93
2023-04-03T15:52:19.132Z,1.02
2023-04-03T15:54:53.116Z,0.93
2023-04-03T15:57:24.253Z,1.17
2023-04-03T15:59:50.977Z,1.10
2023-04-03T16:02:17.855Z,1.00
2023-04-03T16:04:51.984Z,0.90
2023-04-03T16:07:19.210Z,1.20
2023-04-03T16:09:45.928Z,1.10
2023-04-03T16:12:19.614Z,1.50
2023-04-03T16:14:47.878Z,1.15
2023-04-03T16:17:21.926Z,1.42
2023-04-03T16:19:49.180Z,0.90
2023-04-03T16:22:16.063Z,1.23
2023-04-03T16:24:45.740Z,0.93
2023-04-03T16:27:12.654Z,0.93
2023-04-03T16:29:39.365Z,1.00
2023-04-03T16:32:10.014Z,1.20
2023-04-03T16:34:37.336Z,1.00
2023-04-03T16:37:08.066Z,1.00
2023-04-03T16:39:35.062Z,1.10
2023-04-03T16:42:01.823Z,1.10
2023-04-03T16:44:29.275Z,0.93
2023-04-03T16:46:56.032Z,1.00
2023-04-03T16:49:23.127Z,0.70
2023-04-03T16:51:50.116Z,0.90
2023-04-03T16:54:16.914Z,0.90
2023-04-03T16:56:43.942Z,1.40
2023-04-03T16:59:13.961Z,1.15
2023-04-03T17:01:42.925Z,1.10
2023-04-03T17:04:16.787Z,0.93
2023-04-03T17:06:51.574Z,0.80
2023-04-03T17:09:18.245Z,1.10
2023-04-03T17:11:47.484Z,1.40
2023-04-03T17:14:20.199Z,1.05
2023-04-03T17:16:47.120Z,0.85
2023-04-03T17:19:20.301Z,1.10
2023-04-03T17:21:47.037Z,0.95
2023-04-03T17:24:14.631Z,0.90
2023-04-03T17:26:48.985Z,0.93
2023-04-03T17:31:42.398Z,0.80
2023-04-03T17:34:09.380Z,0.80
2023-04-03T17:36:36.086Z,1.10
2023-04-03T17:39:02.888Z,0.80
2023-04-03T17:41:29.731Z,1.08
2023-04-03T17:43:56.502Z,1.20
2023-04-03T17:46:24.061Z,1.20
2023-04-03T17:48:52.652Z,0.80
2023-04-03T17:51:21.109Z,1.67
2023-04-03T17:53:48.359Z,1.48
2023-04-03T17:56:16.443Z,1.33
2023-04-03T17:58:49.513Z,1.20
2023-04-03T18:01:17.739Z,1.15
2023-04-03T18:03:45.101Z,1.48
2023-04-03T18:06:12.880Z,1.35
2023-04-03T18:08:49.593Z,1.40
2023-04-03T18:11:16.831Z,1.50
2023-04-03T18:13:51.296Z,1.50
2023-04-03T18:18:44.649Z,1.52
2023-04-03T18:21:12.166Z,1.40
2023-04-03T18:23:43.907Z,1.70
2023-04-03T18:26:12.282Z,1.77
2023-04-03T18:28:41.316Z,1.60
2023-04-03T18:31:08.500Z,1.40
2023-04-03T18:33:35.390Z,1.95
2023-04-03T18:36:02.153Z,1.73
2023-04-03T18:38:28.974Z,1.80
2023-04-03T18:40:55.782Z,1.75
2023-04-03T18:43:22.699Z,2.15
2023-04-03T18:45:49.529Z,1.67
2023-04-03T18:48:16.336Z,1.60
2023-04-03T18:50:43.359Z,1.90
2023-04-03T18:53:10.220Z,2.22
2023-04-03T18:55:36.947Z,2.08
2023-04-03T18:58:03.706Z,2.30
2023-04-03T19:00:34.038Z,2.10
2023-04-03T19:03:05.208Z,2.10
2023-04-03T19:05:32.079Z,2.25
2023-04-03T19:08:04.396Z,2.45
2023-04-03T19:10:31.552Z,2.40
2023-04-03T19:12:58.368Z,1.77
2023-04-03T19:15:25.220Z,2.35
2023-04-03T19:17:52.188Z,2.50
2023-04-03T19:20:18.944Z,2.50
2023-04-03T19:22:45.671Z,2.65
2023-04-03T19:25:12.862Z,2.45
2023-04-03T19:27:40.165Z,2.42
2023-04-03T19:30:07.713Z,2.60
2023-04-03T19:32:34.450Z,2.47
2023-04-03T19:35:02.118Z,2.60
2023-04-03T19:37:29.121Z,2.90
2023-04-03T19:39:55.925Z,2.25
2023-04-03T19:42:22.707Z,2.80
2023-04-03T19:44:51.547Z,2.88
2023-04-03T19:47:27.589Z,2.70
2023-04-03T19:49:58.225Z,2.42
2023-04-03T19:52:32.133Z,2.40
2023-04-03T19:54:58.850Z,2.75
2023-04-03T19:57:25.628Z,2.70
2023-04-03T19:59:52.277Z,3.17
2023-04-03T20:02:18.957Z,3.47
2023-04-03T20:04:45.736Z,3.05
2023-04-03T20:07:12.650Z,3.10
2023-04-03T20:09:45.837Z,3.17
2023-04-03T20:12:17.742Z,4.22
2023-04-03T20:14:44.434Z,3.65
2023-04-03T20:17:12.790Z,3.33
2023-04-03T20:19:39.545Z,3.38
2023-04-03T20:22:06.213Z,3.47
2023-04-03T20:24:32.956Z,3.58
2023-04-03T20:27:00.254Z,3.70
2023-04-03T20:29:28.201Z,3.10
2023-04-03T20:31:55.831Z,3.22
2023-04-03T20:34:22.586Z,2.70
2023-04-03T20:36:53.090Z,2.85
2023-04-03T20:39:20.499Z,3.30
2023-04-03T20:41:47.261Z,3.13
2023-04-03T20:44:13.990Z,3.13
2023-04-03T20:49:16.401Z,2.72
2023-04-03T20:51:43.172Z,2.78
2023-04-03T20:54:09.908Z,3.33
2023-04-03T20:56:40.461Z,3.20
2023-04-03T20:59:07.190Z,3.08
2023-04-03T21:01:35.806Z,4.07
2023-04-03T21:04:07.526Z,2.97
2023-04-03T21:06:52.761Z,2.75
2023-04-03T21:09:38.043Z,2.60
2023-04-03T21:12:23.232Z,3.30
2023-04-03T21:15:09.751Z,2.85
2023-04-03T21:17:36.847Z,2.90
2023-04-03T21:20:03.543Z,3.30
2023-04-03T21:22:31.350Z,4.50
2023-04-03T21:24:58.076Z,3.03
2023-04-03T21:27:24.886Z,3.05
2023-04-03T21:29:51.567Z,2.78
2023-04-03T21:32:18.269Z,3.33
2023-04-03T21:34:44.933Z,3.53
2023-04-03T21:37:11.779Z,3.67
2023-04-03T21:39:38.613Z,3.22
2023-04-03T21:42:11.117Z,3.08
2023-04-03T21:44:38.514Z,3.90
2023-04-03T21:47:05.380Z,3.88
2023-04-03T21:49:37.079Z,3.80
2023-04-03T21:52:03.875Z,3.30
2023-04-03T21:54:31.563Z,4.10
2023-04-03T21:56:58.263Z,3.97
2023-04-03T21:59:25.131Z,4.28
2023-04-03T22:01:52.039Z,4.72
2023-04-03T22:04:18.859Z,4.30
2023-04-03T22:06:45.556Z,3.83
2023-04-03T22:09:12.249Z,4.47
2023-04-03T22:11:38.886Z,4.45
2023-04-03T22:14:15.229Z,4.20
2023-04-03T22:16:43.002Z,4.45
2023-04-03T22:19:09.934Z,4.32
2023-04-03T22:21:36.591Z,3.53
2023-04-03T22:24:03.655Z,3.72
2023-04-03T22:26:30.510Z,4.40
2023-04-03T22:29:00.141Z,3.75
2023-04-03T22:31:28.345Z,3.95
2023-04-03T22:33:55.052Z,3.72
2023-04-03T22:36:25.141Z,3.55
2023-04-03T22:38:51.991Z,5.53
2023-04-03T22:41:18.677Z,3.38
2023-04-03T22:43:48.889Z,4.05
2023-04-03T22:46:15.534Z,4.43
2023-04-03T22:48:42.503Z,3.88
2023-04-03T22:51:09.283Z,3.10
2023-04-03T22:53:38.216Z,3.40
2023-04-03T22:56:05.927Z,3.47
2023-04-03T22:58:32.669Z,3.35
2023-04-03T23:01:11.439Z,3.60
2023-04-03T23:03:39.448Z,3.58
2023-04-03T23:06:06.783Z,3.40
2023-04-03T23:08:34.995Z,4.00
2023-04-03T23:11:01.994Z,3.72
2023-04-03T23:13:28.684Z,4.15
2023-04-03T23:15:56.103Z,4.18
2023-04-03T23:18:22.935Z,3.90
2023-04-03T23:20:49.650Z,4.47
2023-04-03T23:23:16.385Z,4.32
2023-04-03T23:25:44.325Z,4.30
2023-04-03T23:28:16.825Z,3.72
2023-04-03T23:30:44.402Z,4.18
2023-04-03T23:33:11.084Z,3.63
2023-04-03T23:35:47.072Z,3.70
2023-04-03T23:38:14.233Z,4.00
2023-04-03T23:40:44.390Z,3.70
2023-04-03T23:43:11.160Z,3.50
2023-04-03T23:45:37.863Z,3.88
2023-04-03T23:48:13.165Z,3.28
2023-04-03T23:50:40.190Z,3.75
2023-04-03T23:53:07.326Z,3.10
2023-04-03T23:55:42.338Z,2.90
2023-04-03T23:58:09.097Z,2.88
